»·PEaware :: DAL2841 KSLC-KPDX

DAL2841 :: KSLC-KPDX

FLIGHT INFORMATION

Flight Status: Arrived
Operator:
Delta Air Lines
More flights by this operator :: More flights under this callsign
Pilot: Joe P. (13940)
Aircraft: MCDONNELL-DOUGLAS MD-82
(MD82)
More flights by this aircraft type
Origin: KSLC Salt Lake City Intl
United States
Destination: KPDX Portland Intl
United States
More flights between these airports :: More routes between these airports
Route: +CGULL1 TWF J15 BOI J163 BKE JOTBA HHOOD4
File this flight plan on PilotEdge
Remarks: KSEA -PBN / B3B4B5D3D4 DOF / 180728 REG / N904DL EET / KZSE0059
Altitude:
(Current/Filed)
320ft
Speed:
(Current/Filed)
450kts
Departed: 27-Jul-18 07:36 PM
Arrived: 27-Jul-18 09:09 PM
Distance/Time
Traveled:
546nm/1:33
Distance/Time
To Go:
Arrived

Flight Plot

Page will automatically refresh every two minutes.

Flight plan parsing failed; only flown route is shown


Map Options




Map Legend


Flown Route
Filed Route
Departure Airport
Arrival Airport
Navaid (VOR, NDB)
Fix

Horizontal Profiles

Position Reports

Time Latitude Longitude Heading Altitude Ground
Speed
27-Jul-18 18:45 40.785586 -111.978056 231 4236ft 0kts
27-Jul-18 18:46 40.785586 -111.978056 231 4236ft 0kts
27-Jul-18 18:47 40.785586 -111.978056 231 4236ft 0kts
27-Jul-18 18:48 40.785586 -111.978056 231 4236ft 0kts
27-Jul-18 18:49 40.785586 -111.978056 231 4236ft 0kts
27-Jul-18 18:50 40.785586 -111.978056 231 4236ft 0kts
27-Jul-18 18:51 40.785586 -111.978056 231 4236ft 0kts
27-Jul-18 18:52 40.785586 -111.978056 231 4236ft 0kts
27-Jul-18 18:53 40.785586 -111.978056 231 4236ft 0kts
27-Jul-18 18:54 40.785586 -111.978056 231 4236ft 0kts
27-Jul-18 18:55 40.785586 -111.978056 231 4236ft 0kts
27-Jul-18 18:56 40.785586 -111.978056 231 4236ft 0kts
27-Jul-18 18:57 40.785586 -111.978056 231 4236ft 0kts
27-Jul-18 18:58 40.785586 -111.978056 231 4236ft 0kts
27-Jul-18 18:59 40.785586 -111.978056 231 4236ft 0kts
27-Jul-18 19:00 40.785586 -111.978056 231 4236ft 0kts
27-Jul-18 19:01 40.785586 -111.978056 231 4236ft 0kts
27-Jul-18 19:02 40.785586 -111.978056 231 4236ft 0kts
27-Jul-18 19:03 40.785586 -111.978056 231 4236ft 0kts
27-Jul-18 19:04 40.785586 -111.978056 231 4236ft 0kts
27-Jul-18 19:05 40.785586 -111.978056 231 4236ft 0kts
27-Jul-18 19:06 40.785586 -111.978056 231 4236ft 0kts
27-Jul-18 19:07 40.785586 -111.978056 231 4236ft 0kts
27-Jul-18 19:08 40.785586 -111.978056 231 4236ft 0kts
27-Jul-18 19:09 40.785586 -111.978056 231 4236ft 0kts
27-Jul-18 19:10 40.785586 -111.978056 231 4236ft 0kts
27-Jul-18 19:11 40.785586 -111.978056 231 4236ft 0kts
27-Jul-18 19:12 40.785586 -111.978056 231 4236ft 0kts
27-Jul-18 19:13 40.785586 -111.978056 231 4236ft 0kts
27-Jul-18 19:14 40.785586 -111.978056 231 4236ft 0kts
27-Jul-18 19:15 40.785586 -111.978056 231 4236ft 0kts
27-Jul-18 19:16 40.785586 -111.978056 231 4236ft 0kts
27-Jul-18 19:17 40.785586 -111.978056 231 4236ft 0kts
27-Jul-18 19:18 40.785586 -111.978056 231 4236ft 0kts
27-Jul-18 19:19 40.785586 -111.978056 231 4236ft 0kts
27-Jul-18 19:20 40.785586 -111.978056 231 4236ft 0kts
27-Jul-18 19:21 40.785586 -111.978056 231 4236ft 0kts
27-Jul-18 19:22 40.785586 -111.978056 231 4236ft 0kts
27-Jul-18 19:23 40.785589 -111.978051 231 4236ft 0kts
27-Jul-18 19:24 40.786162 -111.977508 196 4236ft 2kts
27-Jul-18 19:25 40.786469 -111.977444 180 4236ft 0kts
27-Jul-18 19:26 40.786469 -111.977444 180 4236ft 0kts
27-Jul-18 19:27 40.786469 -111.977444 180 4236ft 0kts
27-Jul-18 19:28 40.786121 -111.977330 159 4236ft 4kts
27-Jul-18 19:29 40.784768 -111.976759 167 4236ft 7kts
27-Jul-18 19:30 40.782493 -111.976340 173 4236ft 10kts
27-Jul-18 19:31 40.778436 -111.975396 169 4236ft 18kts
27-Jul-18 19:32 40.774980 -111.974999 174 4236ft 0kts
27-Jul-18 19:33 40.774976 -111.974999 173 4236ft 0kts
27-Jul-18 19:34 40.774504 -111.974762 133 4236ft 4kts
27-Jul-18 19:35 40.775134 -111.973155 357 4236ft 2kts
27-Jul-18 19:36 40.775148 -111.973155 357 4236ft 0kts
27-Jul-18 19:37 40.796513 -111.975557 350 4236ft 163kts
27-Jul-18 19:38 40.844215 -111.990671 330 6399ft 185kts
27-Jul-18 19:39 40.899876 -112.029163 332 7373ft 266kts
27-Jul-18 19:40 40.954835 -112.101507 294 8872ft 290kts
27-Jul-18 19:41 40.996901 -112.193685 305 10491ft 303kts
27-Jul-18 19:42 41.050157 -112.289148 305 11772ft 338kts
27-Jul-18 19:43 41.105302 -112.390839 304 14114ft 342kts
27-Jul-18 19:44 41.160970 -112.492454 308 15616ft 330kts
27-Jul-18 19:45 41.230318 -112.571110 319 17620ft 340kts
27-Jul-18 19:46 41.305831 -112.654487 310 19042ft 356kts
27-Jul-18 19:47 41.371709 -112.754342 308 20686ft 363kts
27-Jul-18 19:48 41.440028 -112.856025 307 22257ft 370kts
27-Jul-18 19:49 41.505878 -112.957014 307 24819ft 348kts
27-Jul-18 19:50 41.572871 -113.059821 307 25048ft 388kts
27-Jul-18 19:51 41.643952 -113.169626 307 26195ft 393kts
27-Jul-18 19:52 41.716027 -113.281035 307 27156ft 399kts
27-Jul-18 19:53 41.788700 -113.394391 307 28010ft 405kts
27-Jul-18 19:54 41.862662 -113.509919 307 28933ft 409kts
27-Jul-18 19:55 41.937143 -113.626218 307 29648ft 415kts
27-Jul-18 19:56 42.012078 -113.743550 307 30770ft 408kts
27-Jul-18 19:57 42.085720 -113.858681 306 31745ft 404kts
27-Jul-18 19:58 42.159164 -113.975034 306 32072ft 414kts
27-Jul-18 19:59 42.234500 -114.094508 306 32074ft 416kts
27-Jul-18 20:00 42.309450 -114.214051 306 32078ft 417kts
27-Jul-18 20:01 42.384471 -114.333678 306 32082ft 417kts
27-Jul-18 20:02 42.459621 -114.453314 306 32084ft 416kts
27-Jul-18 20:03 42.535633 -114.571937 306 32082ft 416kts
27-Jul-18 20:04 42.611771 -114.690079 306 32075ft 416kts
27-Jul-18 20:05 42.687770 -114.808307 306 32069ft 416kts
27-Jul-18 20:06 42.763814 -114.926488 306 32062ft 415kts
27-Jul-18 20:07 42.839883 -115.045293 306 32060ft 414kts
27-Jul-18 20:08 42.915321 -115.164111 306 32048ft 415kts
27-Jul-18 20:09 42.990759 -115.283387 306 32031ft 414kts
27-Jul-18 20:10 43.066077 -115.402708 306 32008ft 415kts
27-Jul-18 20:11 43.141504 -115.522066 306 31996ft 415kts
27-Jul-18 20:12 43.216807 -115.642460 305 31990ft 415kts
27-Jul-18 20:13 43.291663 -115.762932 305 31989ft 415kts
27-Jul-18 20:14 43.366595 -115.883428 305 31987ft 414kts
27-Jul-18 20:15 43.441409 -116.004175 305 31980ft 415kts
27-Jul-18 20:16 43.515842 -116.124965 304 31970ft 414kts
27-Jul-18 20:17 43.595970 -116.240574 311 31965ft 419kts
27-Jul-18 20:18 43.683714 -116.346728 312 31955ft 421kts
27-Jul-18 20:19 43.771612 -116.453749 312 31949ft 421kts
27-Jul-18 20:20 43.859170 -116.561705 312 31942ft 420kts
27-Jul-18 20:21 43.946216 -116.669202 312 31949ft 420kts
27-Jul-18 20:22 44.033343 -116.777551 311 31951ft 420kts
27-Jul-18 20:23 44.120271 -116.886037 311 31950ft 421kts
27-Jul-18 20:24 44.207394 -116.994414 311 31955ft 420kts
27-Jul-18 20:25 44.294780 -117.103709 311 31973ft 420kts
27-Jul-18 20:26 44.381611 -117.213509 311 31997ft 420kts
27-Jul-18 20:27 44.468318 -117.323527 311 32026ft 422kts
27-Jul-18 20:28 44.555049 -117.433860 311 32051ft 421kts
27-Jul-18 20:29 44.641867 -117.544278 311 32068ft 421kts
27-Jul-18 20:30 44.728950 -117.654956 311 32077ft 421kts
27-Jul-18 20:31 44.814522 -117.767046 302 32082ft 415kts
27-Jul-18 20:32 44.860077 -117.911899 281 32085ft 400kts
27-Jul-18 20:33 44.879485 -118.065796 275 32083ft 400kts
27-Jul-18 20:34 44.898558 -118.220487 277 32083ft 402kts
27-Jul-18 20:35 44.918995 -118.375391 277 32085ft 401kts
27-Jul-18 20:36 44.938531 -118.530442 276 32076ft 402kts
27-Jul-18 20:37 44.957948 -118.686313 276 32082ft 402kts
27-Jul-18 20:38 44.977378 -118.842053 276 32078ft 403kts
27-Jul-18 20:39 44.996828 -118.998737 276 32024ft 405kts
27-Jul-18 20:40 45.016205 -119.155077 276 32006ft 406kts
27-Jul-18 20:41 45.034872 -119.312278 276 32004ft 407kts
27-Jul-18 20:42 45.053735 -119.470366 276 32004ft 408kts
27-Jul-18 20:43 45.072248 -119.628621 276 31997ft 409kts
27-Jul-18 20:44 45.090369 -119.787915 276 31991ft 409kts
27-Jul-18 20:45 45.108526 -119.947140 276 31989ft 410kts
27-Jul-18 20:46 45.126655 -120.107364 276 31988ft 415kts
27-Jul-18 20:47 45.142213 -120.269115 275 31974ft 415kts
27-Jul-18 20:48 45.161083 -120.432558 277 29924ft 423kts
27-Jul-18 20:49 45.195117 -120.594246 294 27450ft 439kts
27-Jul-18 20:50 45.256554 -120.743435 295 24923ft 430kts
27-Jul-18 20:51 45.312040 -120.890689 295 22375ft 416kts
27-Jul-18 20:52 45.366411 -121.032589 295 19955ft 404kts
27-Jul-18 20:53 45.410926 -121.147830 295 17987ft 392kts
27-Jul-18 20:54 45.450313 -121.288999 283 15720ft 379kts
27-Jul-18 20:55 45.475055 -121.423603 284 14514ft 306kts
27-Jul-18 20:56 45.498768 -121.543513 284 12764ft 314kts
27-Jul-18 20:57 45.522140 -121.661833 284 11174ft 287kts
27-Jul-18 20:58 45.537118 -121.770522 273 10468ft 276kts
27-Jul-18 20:59 45.539893 -121.879665 272 9455ft 277kts
27-Jul-18 21:00 45.543350 -121.986009 274 7693ft 246kts
27-Jul-18 21:01 45.534344 -122.075943 239 6497ft 230kts
27-Jul-18 21:02 45.496708 -122.149122 233 6019ft 227kts
27-Jul-18 21:03 45.454433 -122.219051 243 5223ft 241kts
27-Jul-18 21:04 45.477350 -122.286625 302 3985ft 186kts
27-Jul-18 21:05 45.498362 -122.352304 299 3359ft 161kts
27-Jul-18 21:06 45.520045 -122.404030 299 2523ft 150kts
27-Jul-18 21:07 45.540355 -122.455844 298 1791ft 148kts
27-Jul-18 21:08 45.560152 -122.506707 297 1027ft 146kts
27-Jul-18 21:09 45.579815 -122.556998 299 240ft 145kts
27-Jul-18 21:10 45.592085 -122.589685 274 27ft 12kts
27-Jul-18 21:11 45.592110 -122.590387 272 27ft 1kts
27-Jul-18 21:12 45.592115 -122.590570 272 27ft 1kts
27-Jul-18 21:13 45.592148 -122.591814 271 27ft 4kts
27-Jul-18 21:14 45.591837 -122.593825 190 27ft 6kts
27-Jul-18 21:15 45.591306 -122.594121 203 27ft 0kts
27-Jul-18 21:16 45.591306 -122.594121 203 27ft 0kts
27-Jul-18 21:17 45.591306 -122.594121 203 27ft 0kts
27-Jul-18 21:18 45.591306 -122.594121 203 27ft 0kts
27-Jul-18 21:19 45.591306 -122.594121 203 27ft 0kts
27-Jul-18 21:20 45.591306 -122.594121 203 27ft 0kts
27-Jul-18 21:21 45.591306 -122.594121 203 27ft 0kts
27-Jul-18 21:22 45.591306 -122.594121 203 27ft 0kts
27-Jul-18 21:23 45.591306 -122.594121 203 27ft 0kts
27-Jul-18 21:24 45.591306 -122.594121 203 27ft 0kts

Navigation Log

Ident Type
Flight plan parsing failed, navigation log unavailable